sensor_id;sensor_type;location;lat;lon;timestamp;pressure;altitude;pressure_sealevel;temperature;humidity
13367;BME280;6752;52.612;13.630;2023-01-08T00:02:40;100326.03;;;8.72;100.00
13367;BME280;6752;52.612;13.630;2023-01-08T00:07:42;100327.26;;;8.60;100.00
13367;BME280;6752;52.612;13.630;2023-01-08T00:12:44;100323.23;;;8.69;100.00
13367;BME280;6752;52.612;13.630;2023-01-08T00:17:47;100308.17;;;8.54;100.00
13367;BME280;6752;52.612;13.630;2023-01-08T00:22:52;100309.42;;;8.55;100.00
13367;BME280;6752;52.612;13.630;2023-01-08T00:27:55;100306.02;;;8.44;100.00
13367;BME280;6752;52.612;13.630;2023-01-08T00:32:57;100305.54;;;8.35;100.00
13367;BME280;6752;52.612;13.630;2023-01-08T00:37:59;100297.38;;;8.31;100.00
13367;BME280;6752;52.612;13.630;2023-01-08T00:43:04;100295.72;;;8.30;100.00
13367;BME280;6752;52.612;13.630;2023-01-08T00:48:06;100288.55;;;8.17;100.00
13367;BME280;6752;52.612;13.630;2023-01-08T00:53:10;100286.80;;;8.10;100.00
13367;BME280;6752;52.612;13.630;2023-01-08T00:58:12;100258.72;;;8.04;100.00
13367;BME280;6752;52.612;13.630;2023-01-08T01:03:16;100262.61;;;7.98;100.00
13367;BME280;6752;52.612;13.630;2023-01-08T01:08:18;100259.62;;;7.91;100.00
13367;BME280;6752;52.612;13.630;2023-01-08T01:13:23;100261.51;;;7.80;100.00
13367;BME280;6752;52.612;13.630;2023-01-08T01:18:25;100250.37;;;7.83;100.00
13367;BME280;6752;52.612;13.630;2023-01-08T01:23:27;100252.56;;;7.73;100.00
13367;BME280;6752;52.612;13.630;2023-01-08T01:28:30;100250.98;;;7.78;100.00
13367;BME280;6752;52.612;13.630;2023-01-08T01:33:32;100254.15;;;7.68;100.00
13367;BME280;6752;52.612;13.630;2023-01-08T01:38:35;100253.91;;;7.77;100.00
13367;BME280;6752;52.612;13.630;2023-01-08T01:43:38;100237.28;;;7.60;100.00
13367;BME280;6752;52.612;13.630;2023-01-08T01:48:39;100240.22;;;7.42;100.00
13367;BME280;6752;52.612;13.630;2023-01-08T01:53:42;100244.28;;;7.45;100.00
13367;BME280;6752;52.612;13.630;2023-01-08T01:58:44;100249.41;;;7.41;100.00
13367;BME280;6752;52.612;13.630;2023-01-08T02:03:54;100238.14;;;7.27;100.00
13367;BME280;6752;52.612;13.630;2023-01-08T02:10:00;100212.73;;;7.15;100.00
13367;BME280;6752;52.612;13.630;2023-01-08T02:14:37;100212.95;;;7.10;100.00
13367;BME280;6752;52.612;13.630;2023-01-08T02:19:55;100211.67;;;7.09;100.00
13367;BME280;6752;52.612;13.630;2023-01-08T02:24:55;100201.56;;;7.04;100.00
13367;BME280;6752;52.612;13.630;2023-01-08T02:29:57;100193.66;;;6.99;100.00
13367;BME280;6752;52.612;13.630;2023-01-08T02:35:00;100194.82;;;6.88;100.00
13367;BME280;6752;52.612;13.630;2023-01-08T02:45:19;100177.72;;;6.67;100.00
13367;BME280;6752;52.612;13.630;2023-01-08T02:55:28;100161.24;;;6.56;100.00
13367;BME280;6752;52.612;13.630;2023-01-08T03:00:30;100158.02;;;6.56;100.00
13367;BME280;6752;52.612;13.630;2023-01-08T03:05:32;100154.06;;;6.52;100.00
13367;BME280;6752;52.612;13.630;2023-01-08T03:10:41;100146.46;;;6.48;100.00
13367;BME280;6752;52.612;13.630;2023-01-08T03:16:02;100131.27;;;6.41;100.00
13367;BME280;6752;52.612;13.630;2023-01-08T03:21:04;100130.22;;;6.52;100.00
13367;BME280;6752;52.612;13.630;2023-01-08T03:26:09;100135.73;;;6.51;100.00
13367;BME280;6752;52.612;13.630;2023-01-08T03:31:13;100131.44;;;6.36;100.00
13367;BME280;6752;52.612;13.630;2023-01-08T03:36:17;100136.36;;;6.40;100.00
13367;BME280;6752;52.612;13.630;2023-01-08T03:41:25;100130.92;;;6.36;100.00
13367;BME280;6752;52.612;13.630;2023-01-08T03:46:34;100109.58;;;6.21;100.00
13367;BME280;6752;52.612;13.630;2023-01-08T03:51:41;100104.17;;;6.21;100.00
13367;BME280;6752;52.612;13.630;2023-01-08T03:56:41;100103.51;;;6.06;100.00
13367;BME280;6752;52.612;13.630;2023-01-08T04:01:47;100120.56;;;5.96;100.00
13367;BME280;6752;52.612;13.630;2023-01-08T04:06:51;100125.47;;;5.79;100.00
13367;BME280;6752;52.612;13.630;2023-01-08T04:11:57;100129.00;;;5.97;100.00
13367;BME280;6752;52.612;13.630;2023-01-08T04:17:03;100122.36;;;5.89;100.00
13367;BME280;6752;52.612;13.630;2023-01-08T04:22:11;100122.98;;;5.84;100.00
13367;BME280;6752;52.612;13.630;2023-01-08T04:27:16;100125.41;;;5.66;100.00
13367;BME280;6752;52.612;13.630;2023-01-08T04:32:21;100123.80;;;5.75;100.00
13367;BME280;6752;52.612;13.630;2023-01-08T04:37:26;100122.75;;;5.73;100.00
13367;BME280;6752;52.612;13.630;2023-01-08T04:42:35;100118.06;;;5.71;100.00
13367;BME280;6752;52.612;13.630;2023-01-08T04:47:37;100099.16;;;5.84;100.00
13367;BME280;6752;52.612;13.630;2023-01-08T04:52:50;100072.72;;;5.69;100.00
13367;BME280;6752;52.612;13.630;2023-01-08T04:57:52;100078.55;;;5.70;100.00
13367;BME280;6752;52.612;13.630;2023-01-08T05:02:57;100073.25;;;5.76;100.00
13367;BME280;6752;52.612;13.630;2023-01-08T05:07:59;100072.62;;;5.77;100.00
13367;BME280;6752;52.612;13.630;2023-01-08T05:13:02;100064.88;;;5.57;100.00
13367;BME280;6752;52.612;13.630;2023-01-08T05:18:04;100077.95;;;5.50;100.00
13367;BME280;6752;52.612;13.630;2023-01-08T05:23:06;100069.43;;;5.50;100.00
13367;BME280;6752;52.612;13.630;2023-01-08T05:28:08;100079.42;;;5.56;100.00
13367;BME280;6752;52.612;13.630;2023-01-08T05:33:11;100059.83;;;5.68;100.00
13367;BME280;6752;52.612;13.630;2023-01-08T05:38:13;100060.83;;;5.67;100.00
13367;BME280;6752;52.612;13.630;2023-01-08T05:43:16;100054.22;;;5.73;100.00
13367;BME280;6752;52.612;13.630;2023-01-08T05:48:28;100052.45;;;5.73;100.00
13367;BME280;6752;52.612;13.630;2023-01-08T05:53:30;100053.45;;;5.65;100.00
13367;BME280;6752;52.612;13.630;2023-01-08T05:58:35;100043.09;;;5.82;100.00
13367;BME280;6752;52.612;13.630;2023-01-08T06:03:37;100044.20;;;5.94;100.00
13367;BME280;6752;52.612;13.630;2023-01-08T06:08:40;100030.88;;;6.03;100.00
13367;BME280;6752;52.612;13.630;2023-01-08T06:13:42;100034.11;;;5.99;100.00
13367;BME280;6752;52.612;13.630;2023-01-08T06:18:45;100029.84;;;6.04;100.00
13367;BME280;6752;52.612;13.630;2023-01-08T06:23:55;100028.89;;;6.14;100.00
13367;BME280;6752;52.612;13.630;2023-01-08T06:29:01;100024.14;;;6.16;100.00
13367;BME280;6752;52.612;13.630;2023-01-08T06:34:10;100013.18;;;6.13;100.00
13367;BME280;6752;52.612;13.630;2023-01-08T06:39:12;100013.40;;;6.28;100.00
13367;BME280;6752;52.612;13.630;2023-01-08T06:44:14;100005.91;;;6.27;100.00
13367;BME280;6752;52.612;13.630;2023-01-08T06:49:17;100014.33;;;6.31;100.00
13367;BME280;6752;52.612;13.630;2023-01-08T06:54:21;100014.86;;;6.27;100.00
13367;BME280;6752;52.612;13.630;2023-01-08T06:59:23;100010.90;;;6.30;100.00
13367;BME280;6752;52.612;13.630;2023-01-08T07:04:25;100020.68;;;6.31;100.00
13367;BME280;6752;52.612;13.630;2023-01-08T07:09:27;100019.13;;;6.26;100.00
13367;BME280;6752;52.612;13.630;2023-01-08T07:14:35;100024.95;;;6.33;100.00
13367;BME280;6752;52.612;13.630;2023-01-08T07:19:38;100020.27;;;6.31;100.00
13367;BME280;6752;52.612;13.630;2023-01-08T07:24:41;100020.80;;;6.40;100.00
13367;BME280;6752;52.612;13.630;2023-01-08T07:29:43;100015.48;;;6.43;100.00
13367;BME280;6752;52.612;13.630;2023-01-08T07:34:49;100018.38;;;6.51;100.00
13367;BME280;6752;52.612;13.630;2023-01-08T07:39:51;100008.25;;;6.59;100.00
13367;BME280;6752;52.612;13.630;2023-01-08T07:44:54;100011.28;;;6.57;100.00
13367;BME280;6752;52.612;13.630;2023-01-08T07:49:56;100005.88;;;6.63;100.00
13367;BME280;6752;52.612;13.630;2023-01-08T07:55:06;100012.18;;;6.76;100.00
13367;BME280;6752;52.612;13.630;2023-01-08T08:00:08;100016.16;;;6.74;100.00
13367;BME280;6752;52.612;13.630;2023-01-08T08:05:13;100020.08;;;6.81;100.00
13367;BME280;6752;52.612;13.630;2023-01-08T08:10:16;100009.77;;;6.90;100.00
13367;BME280;6752;52.612;13.630;2023-01-08T08:15:21;100005.25;;;6.97;100.00
13367;BME280;6752;52.612;13.630;2023-01-08T08:20:24;100002.17;;;7.09;100.00
13367;BME280;6752;52.612;13.630;2023-01-08T08:25:26;99992.39;;;7.11;100.00
13367;BME280;6752;52.612;13.630;2023-01-08T08:30:29;99987.59;;;7.13;100.00
13367;BME280;6752;52.612;13.630;2023-01-08T08:35:31;99995.98;;;7.21;100.00
13367;BME280;6752;52.612;13.630;2023-01-08T08:40:33;99995.45;;;7.21;100.00
13367;BME280;6752;52.612;13.630;2023-01-08T08:45:36;99992.67;;;7.16;100.00
13367;BME280;6752;52.612;13.630;2023-01-08T08:50:38;99987.38;;;7.31;100.00
13367;BME280;6752;52.612;13.630;2023-01-08T08:55:43;99982.00;;;7.24;100.00
13367;BME280;6752;52.612;13.630;2023-01-08T09:00:47;99980.98;;;7.41;100.00
13367;BME280;6752;52.612;13.630;2023-01-08T09:05:49;99970.26;;;7.52;100.00
13367;BME280;6752;52.612;13.630;2023-01-08T09:10:51;99977.06;;;7.49;100.00
13367;BME280;6752;52.612;13.630;2023-01-08T09:15:56;99977.77;;;7.57;100.00
13367;BME280;6752;52.612;13.630;2023-01-08T09:20:56;99961.99;;;7.60;100.00
13367;BME280;6752;52.612;13.630;2023-01-08T09:26:02;99954.60;;;7.70;100.00
13367;BME280;6752;52.612;13.630;2023-01-08T09:31:19;99939.39;;;7.94;100.00
13367;BME280;6752;52.612;13.630;2023-01-08T09:36:22;99926.74;;;8.10;100.00
13367;BME280;6752;52.612;13.630;2023-01-08T09:41:27;99964.44;;;7.84;100.00
13367;BME280;6752;52.612;13.630;2023-01-08T09:46:29;99964.77;;;7.81;100.00
13367;BME280;6752;52.612;13.630;2023-01-08T09:51:36;99969.69;;;7.91;100.00
13367;BME280;6752;52.612;13.630;2023-01-08T09:56:38;99976.05;;;7.91;100.00
13367;BME280;6752;52.612;13.630;2023-01-08T10:01:40;99972.84;;;7.88;100.00
13367;BME280;6752;52.612;13.630;2023-01-08T10:06:53;99982.78;;;7.85;100.00
13367;BME280;6752;52.612;13.630;2023-01-08T10:11:55;99978.61;;;7.86;100.00
13367;BME280;6752;52.612;13.630;2023-01-08T10:22:21;99942.16;;;8.00;100.00
13367;BME280;6752;52.612;13.630;2023-01-08T10:27:31;99919.41;;;8.23;100.00
13367;BME280;6752;52.612;13.630;2023-01-08T10:32:37;99924.67;;;8.18;100.00
13367;BME280;6752;52.612;13.630;2023-01-08T10:37:42;99925.47;;;8.12;100.00
13367;BME280;6752;52.612;13.630;2023-01-08T10:42:47;99927.88;;;8.20;100.00
13367;BME280;6752;52.612;13.630;2023-01-08T10:47:55;99933.99;;;8.25;100.00
13367;BME280;6752;52.612;13.630;2023-01-08T10:53:04;99938.44;;;8.19;100.00
13367;BME280;6752;52.612;13.630;2023-01-08T11:03:28;99941.78;;;8.09;100.00
13367;BME280;6752;52.612;13.630;2023-01-08T11:08:37;99930.69;;;7.98;100.00
13367;BME280;6752;52.612;13.630;2023-01-08T11:13:39;99931.12;;;8.11;100.00
13367;BME280;6752;52.612;13.630;2023-01-08T11:18:46;99914.16;;;8.24;100.00
13367;BME280;6752;52.612;13.630;2023-01-08T11:24:35;99895.91;;;8.22;100.00
13367;BME280;6752;52.612;13.630;2023-01-08T11:29:13;99897.68;;;8.23;100.00
13367;BME280;6752;52.612;13.630;2023-01-08T11:34:41;99902.09;;;8.54;100.00
13367;BME280;6752;52.612;13.630;2023-01-08T11:39:41;99882.25;;;8.54;100.00
13367;BME280;6752;52.612;13.630;2023-01-08T11:50:18;99870.92;;;8.57;100.00
13367;BME280;6752;52.612;13.630;2023-01-08T12:12:01;99853.48;;;8.46;100.00
13367;BME280;6752;52.612;13.630;2023-01-08T12:17:11;99845.01;;;8.82;100.00
13367;BME280;6752;52.612;13.630;2023-01-08T12:22:24;99834.08;;;8.79;100.00
13367;BME280;6752;52.612;13.630;2023-01-08T12:33:03;99821.84;;;8.79;100.00
13367;BME280;6752;52.612;13.630;2023-01-08T12:38:20;99819.64;;;9.09;100.00
13367;BME280;6752;52.612;13.630;2023-01-08T12:48:53;99814.80;;;9.11;100.00
13367;BME280;6752;52.612;13.630;2023-01-08T12:59:08;99805.77;;;9.19;100.00
13367;BME280;6752;52.612;13.630;2023-01-08T13:04:08;99806.58;;;9.08;100.00
13367;BME280;6752;52.612;13.630;2023-01-08T13:09:14;99795.00;;;9.13;100.00
13367;BME280;6752;52.612;13.630;2023-01-08T13:14:12;99798.19;;;9.04;100.00
13367;BME280;6752;52.612;13.630;2023-01-08T13:19:24;99794.64;;;9.09;100.00
13367;BME280;6752;52.612;13.630;2023-01-08T13:24:35;99802.63;;;9.07;100.00
13367;BME280;6752;52.612;13.630;2023-01-08T13:29:41;99803.05;;;9.19;100.00
13367;BME280;6752;52.612;13.630;2023-01-08T13:34:43;99789.50;;;9.10;100.00
13367;BME280;6752;52.612;13.630;2023-01-08T13:39:45;99789.62;;;9.04;100.00
13367;BME280;6752;52.612;13.630;2023-01-08T13:44:51;99785.95;;;9.04;100.00
13367;BME280;6752;52.612;13.630;2023-01-08T13:50:03;99792.33;;;8.89;100.00
13367;BME280;6752;52.612;13.630;2023-01-08T13:55:02;99782.59;;;8.90;100.00
13367;BME280;6752;52.612;13.630;2023-01-08T14:00:07;99788.00;;;8.79;100.00
13367;BME280;6752;52.612;13.630;2023-01-08T14:05:22;99791.56;;;8.85;100.00
13367;BME280;6752;52.612;13.630;2023-01-08T14:10:14;99783.18;;;8.56;100.00
13367;BME280;6752;52.612;13.630;2023-01-08T14:15:23;99785.23;;;8.52;100.00
13367;BME280;6752;52.612;13.630;2023-01-08T14:20:33;99778.11;;;8.60;100.00
13367;BME280;6752;52.612;13.630;2023-01-08T14:25:35;99781.94;;;8.46;100.00
13367;BME280;6752;52.612;13.630;2023-01-08T14:30:45;99781.58;;;8.52;100.00
13367;BME280;6752;52.612;13.630;2023-01-08T14:35:41;99783.55;;;8.36;100.00
13367;BME280;6752;52.612;13.630;2023-01-08T14:40:56;99779.37;;;8.33;100.00
13367;BME280;6752;52.612;13.630;2023-01-08T14:45:52;99781.02;;;8.25;100.00
13367;BME280;6752;52.612;13.630;2023-01-08T14:56:00;99778.00;;;8.24;100.00
13367;BME280;6752;52.612;13.630;2023-01-08T15:01:19;99777.34;;;8.29;100.00
13367;BME280;6752;52.612;13.630;2023-01-08T15:06:24;99783.98;;;8.33;100.00
13367;BME280;6752;52.612;13.630;2023-01-08T15:11:27;99780.51;;;8.16;100.00
13367;BME280;6752;52.612;13.630;2023-01-08T15:16:38;99767.10;;;8.27;100.00
13367;BME280;6752;52.612;13.630;2023-01-08T15:21:46;99764.41;;;8.18;100.00
13367;BME280;6752;52.612;13.630;2023-01-08T15:26:48;99756.01;;;8.14;100.00
13367;BME280;6752;52.612;13.630;2023-01-08T15:31:54;99764.56;;;8.14;100.00
13367;BME280;6752;52.612;13.630;2023-01-08T15:36:56;99773.35;;;8.13;100.00
13367;BME280;6752;52.612;13.630;2023-01-08T15:42:16;99767.89;;;8.07;100.00
13367;BME280;6752;52.612;13.630;2023-01-08T15:47:33;99759.94;;;8.09;100.00
13367;BME280;6752;52.612;13.630;2023-01-08T15:52:38;99770.63;;;7.95;100.00
13367;BME280;6752;52.612;13.630;2023-01-08T15:57:43;99769.12;;;7.90;100.00
13367;BME280;6752;52.612;13.630;2023-01-08T16:02:49;99774.80;;;8.06;100.00
13367;BME280;6752;52.612;13.630;2023-01-08T16:07:51;99777.63;;;8.02;100.00
13367;BME280;6752;52.612;13.630;2023-01-08T16:12:53;99782.73;;;7.95;100.00
13367;BME280;6752;52.612;13.630;2023-01-08T16:17:56;99786.25;;;8.08;100.00
13367;BME280;6752;52.612;13.630;2023-01-08T16:22:58;99775.20;;;8.07;100.00
13367;BME280;6752;52.612;13.630;2023-01-08T16:28:01;99775.98;;;8.20;100.00
13367;BME280;6752;52.612;13.630;2023-01-08T16:33:04;99773.14;;;8.05;100.00
13367;BME280;6752;52.612;13.630;2023-01-08T16:38:07;99765.65;;;8.01;100.00
13367;BME280;6752;52.612;13.630;2023-01-08T16:43:10;99758.63;;;8.06;100.00
13367;BME280;6752;52.612;13.630;2023-01-08T16:48:13;99757.87;;;8.08;100.00
13367;BME280;6752;52.612;13.630;2023-01-08T16:53:16;99754.40;;;8.10;100.00
13367;BME280;6752;52.612;13.630;2023-01-08T16:58:19;99751.95;;;8.05;100.00
13367;BME280;6752;52.612;13.630;2023-01-08T17:03:21;99734.30;;;7.96;100.00
13367;BME280;6752;52.612;13.630;2023-01-08T17:08:25;99732.80;;;7.91;100.00
13367;BME280;6752;52.612;13.630;2023-01-08T17:13:26;99731.81;;;7.94;100.00
13367;BME280;6752;52.612;13.630;2023-01-08T17:18:28;99717.00;;;7.93;100.00
13367;BME280;6752;52.612;13.630;2023-01-08T17:23:31;99715.34;;;7.92;100.00
13367;BME280;6752;52.612;13.630;2023-01-08T17:28:34;99714.93;;;7.74;100.00
13367;BME280;6752;52.612;13.630;2023-01-08T17:33:37;99722.96;;;7.65;100.00
13367;BME280;6752;52.612;13.630;2023-01-08T17:38:39;99704.13;;;7.61;100.00
13367;BME280;6752;52.612;13.630;2023-01-08T17:43:42;99704.05;;;7.59;100.00
13367;BME280;6752;52.612;13.630;2023-01-08T17:48:44;99709.18;;;7.58;100.00
13367;BME280;6752;52.612;13.630;2023-01-08T17:53:48;99720.38;;;7.52;100.00
13367;BME280;6752;52.612;13.630;2023-01-08T17:58:51;99701.95;;;7.39;100.00
13367;BME280;6752;52.612;13.630;2023-01-08T18:03:53;99718.03;;;7.25;100.00
13367;BME280;6752;52.612;13.630;2023-01-08T18:08:55;99692.47;;;7.27;100.00
13367;BME280;6752;52.612;13.630;2023-01-08T18:13:59;99709.34;;;7.29;100.00
13367;BME280;6752;52.612;13.630;2023-01-08T18:19:03;99699.39;;;7.23;100.00
13367;BME280;6752;52.612;13.630;2023-01-08T18:24:06;99699.84;;;7.20;100.00
13367;BME280;6752;52.612;13.630;2023-01-08T18:29:09;99694.69;;;7.15;100.00
13367;BME280;6752;52.612;13.630;2023-01-08T18:34:12;99696.98;;;7.15;100.00
13367;BME280;6752;52.612;13.630;2023-01-08T18:39:14;99697.63;;;7.22;100.00
13367;BME280;6752;52.612;13.630;2023-01-08T18:44:16;99703.19;;;7.18;100.00
13367;BME280;6752;52.612;13.630;2023-01-08T18:49:19;99692.59;;;7.26;100.00
13367;BME280;6752;52.612;13.630;2023-01-08T18:54:21;99688.97;;;7.23;100.00
13367;BME280;6752;52.612;13.630;2023-01-08T18:59:30;99679.78;;;7.15;100.00
13367;BME280;6752;52.612;13.630;2023-01-08T19:04:32;99669.92;;;7.20;100.00
13367;BME280;6752;52.612;13.630;2023-01-08T19:09:34;99660.73;;;7.12;100.00
13367;BME280;6752;52.612;13.630;2023-01-08T19:14:37;99656.75;;;7.15;100.00
13367;BME280;6752;52.612;13.630;2023-01-08T19:19:41;99644.25;;;7.14;100.00
13367;BME280;6752;52.612;13.630;2023-01-08T19:24:44;99644.78;;;7.01;100.00
13367;BME280;6752;52.612;13.630;2023-01-08T19:29:49;99653.92;;;7.03;100.00
13367;BME280;6752;52.612;13.630;2023-01-08T19:34:51;99649.84;;;6.94;100.00
13367;BME280;6752;52.612;13.630;2023-01-08T19:39:53;99652.21;;;6.87;100.00
13367;BME280;6752;52.612;13.630;2023-01-08T19:44:56;99651.72;;;6.81;100.00
13367;BME280;6752;52.612;13.630;2023-01-08T19:49:59;99642.93;;;6.98;100.00
13367;BME280;6752;52.612;13.630;2023-01-08T19:55:01;99645.97;;;6.87;100.00
13367;BME280;6752;52.612;13.630;2023-01-08T20:00:07;99633.14;;;6.88;100.00
13367;BME280;6752;52.612;13.630;2023-01-08T20:05:06;99629.98;;;7.00;100.00
13367;BME280;6752;52.612;13.630;2023-01-08T20:10:11;99621.89;;;6.97;100.00
13367;BME280;6752;52.612;13.630;2023-01-08T20:15:14;99628.70;;;7.03;100.00
13367;BME280;6752;52.612;13.630;2023-01-08T20:20:19;99622.01;;;6.96;100.00
13367;BME280;6752;52.612;13.630;2023-01-08T20:25:18;99613.80;;;6.93;100.00
13367;BME280;6752;52.612;13.630;2023-01-08T20:30:21;99616.36;;;6.85;100.00
13367;BME280;6752;52.612;13.630;2023-01-08T20:35:23;99600.64;;;6.85;100.00
13367;BME280;6752;52.612;13.630;2023-01-08T20:40:25;99600.98;;;6.82;100.00
13367;BME280;6752;52.612;13.630;2023-01-08T20:45:29;99602.17;;;6.77;100.00
13367;BME280;6752;52.612;13.630;2023-01-08T20:50:31;99594.94;;;6.59;100.00
13367;BME280;6752;52.612;13.630;2023-01-08T20:55:34;99591.69;;;6.50;100.00
13367;BME280;6752;52.612;13.630;2023-01-08T21:00:36;99579.84;;;6.48;100.00
13367;BME280;6752;52.612;13.630;2023-01-08T21:05:39;99579.35;;;6.29;100.00
13367;BME280;6752;52.612;13.630;2023-01-08T21:10:42;99586.56;;;6.26;100.00
13367;BME280;6752;52.612;13.630;2023-01-08T21:15:44;99579.72;;;6.24;100.00
13367;BME280;6752;52.612;13.630;2023-01-08T21:20:46;99568.94;;;6.29;100.00
13367;BME280;6752;52.612;13.630;2023-01-08T21:25:53;99559.97;;;6.20;100.00
13367;BME280;6752;52.612;13.630;2023-01-08T21:30:51;99561.47;;;6.16;100.00
13367;BME280;6752;52.612;13.630;2023-01-08T21:35:54;99564.61;;;6.25;100.00
13367;BME280;6752;52.612;13.630;2023-01-08T21:41:06;99549.09;;;6.26;100.00
13367;BME280;6752;52.612;13.630;2023-01-08T21:46:11;99534.88;;;6.22;100.00
13367;BME280;6752;52.612;13.630;2023-01-08T21:51:13;99536.50;;;6.26;100.00
13367;BME280;6752;52.612;13.630;2023-01-08T21:56:33;99528.63;;;6.34;100.00
13367;BME280;6752;52.612;13.630;2023-01-08T22:01:36;99529.41;;;6.28;100.00
13367;BME280;6752;52.612;13.630;2023-01-08T22:06:38;99523.77;;;6.30;100.00
13367;BME280;6752;52.612;13.630;2023-01-08T22:11:43;99507.57;;;6.39;100.00
13367;BME280;6752;52.612;13.630;2023-01-08T22:16:45;99502.12;;;6.30;100.00
13367;BME280;6752;52.612;13.630;2023-01-08T22:21:53;99495.36;;;6.42;100.00
13367;BME280;6752;52.612;13.630;2023-01-08T22:26:56;99488.93;;;6.40;100.00
13367;BME280;6752;52.612;13.630;2023-01-08T22:32:04;99472.80;;;6.39;100.00
13367;BME280;6752;52.612;13.630;2023-01-08T22:37:06;99467.58;;;6.41;100.00
13367;BME280;6752;52.612;13.630;2023-01-08T22:42:11;99471.68;;;6.35;100.00
13367;BME280;6752;52.612;13.630;2023-01-08T22:47:13;99465.63;;;6.39;100.00
13367;BME280;6752;52.612;13.630;2023-01-08T22:52:16;99479.98;;;6.27;100.00
13367;BME280;6752;52.612;13.630;2023-01-08T22:57:18;99475.70;;;6.38;100.00
13367;BME280;6752;52.612;13.630;2023-01-08T23:02:20;99470.59;;;6.30;100.00
13367;BME280;6752;52.612;13.630;2023-01-08T23:07:23;99461.78;;;6.25;100.00
13367;BME280;6752;52.612;13.630;2023-01-08T23:12:25;99450.48;;;5.97;100.00
13367;BME280;6752;52.612;13.630;2023-01-08T23:17:28;99441.84;;;5.98;100.00
13367;BME280;6752;52.612;13.630;2023-01-08T23:22:31;99439.06;;;5.89;100.00
13367;BME280;6752;52.612;13.630;2023-01-08T23:27:33;99433.83;;;5.81;100.00
13367;BME280;6752;52.612;13.630;2023-01-08T23:32:35;99439.73;;;5.72;100.00
13367;BME280;6752;52.612;13.630;2023-01-08T23:37:44;99426.85;;;5.55;100.00
13367;BME280;6752;52.612;13.630;2023-01-08T23:42:46;99422.88;;;5.45;100.00
13367;BME280;6752;52.612;13.630;2023-01-08T23:47:48;99419.89;;;5.37;100.00
13367;BME280;6752;52.612;13.630;2023-01-08T23:52:51;99407.61;;;5.26;100.00
13367;BME280;6752;52.612;13.630;2023-01-08T23:57:53;99412.33;;;5.21;100.00
